sensor_id;sensor_type;location;lat;lon;timestamp;pressure;altitude;pressure_sealevel;temperature;humidity
39363;BME280;25088;43.238;23.110;2023-03-13T00:00:31;96852.13;;;-0.57;85.22
39363;BME280;25088;43.238;23.110;2023-03-13T00:02:57;96852.81;;;-0.63;83.65
39363;BME280;25088;43.238;23.110;2023-03-13T00:05:22;96872.72;;;-0.57;82.52
39363;BME280;25088;43.238;23.110;2023-03-13T00:07:48;96863.06;;;-0.66;83.20
39363;BME280;25088;43.238;23.110;2023-03-13T00:10:13;96858.38;;;-0.64;83.66
39363;BME280;25088;43.238;23.110;2023-03-13T00:12:39;96865.81;;;-0.52;84.36
39363;BME280;25088;43.238;23.110;2023-03-13T00:15:04;96872.38;;;-0.54;85.18
39363;BME280;25088;43.238;23.110;2023-03-13T00:17:30;96875.91;;;-0.54;85.71
39363;BME280;25088;43.238;23.110;2023-03-13T00:19:57;96872.53;;;-0.56;86.23
39363;BME280;25088;43.238;23.110;2023-03-13T00:22:23;96848.03;;;-0.75;86.25
39363;BME280;25088;43.238;23.110;2023-03-13T00:24:48;96855.72;;;-0.72;86.09
39363;BME280;25088;43.238;23.110;2023-03-13T00:27:14;96874.78;;;-0.59;85.96
39363;BME280;25088;43.238;23.110;2023-03-13T00:29:39;96851.41;;;-0.73;85.86
39363;BME280;25088;43.238;23.110;2023-03-13T00:32:05;96871.09;;;-0.66;85.98
39363;BME280;25088;43.238;23.110;2023-03-13T00:34:30;96872.31;;;-0.69;86.68
39363;BME280;25088;43.238;23.110;2023-03-13T00:36:56;96877.38;;;-0.74;87.08
39363;BME280;25088;43.238;23.110;2023-03-13T00:39:21;96878.53;;;-0.76;87.35
39363;BME280;25088;43.238;23.110;2023-03-13T00:41:47;96883.78;;;-0.83;88.32
39363;BME280;25088;43.238;23.110;2023-03-13T00:44:13;96864.09;;;-0.98;89.25
39363;BME280;25088;43.238;23.110;2023-03-13T00:46:39;96875.78;;;-0.91;90.19
39363;BME280;25088;43.238;23.110;2023-03-13T00:49:05;96883.81;;;-0.91;89.64
39363;BME280;25088;43.238;23.110;2023-03-13T00:51:30;96875.13;;;-0.93;89.66
39363;BME280;25088;43.238;23.110;2023-03-13T00:53:58;96870.59;;;-0.93;89.68
39363;BME280;25088;43.238;23.110;2023-03-13T00:56:27;96878.75;;;-0.86;88.94
39363;BME280;25088;43.238;23.110;2023-03-13T00:58:53;96869.06;;;-0.87;88.38
39363;BME280;25088;43.238;23.110;2023-03-13T01:01:24;96841.53;;;-1.04;88.21
39363;BME280;25088;43.238;23.110;2023-03-13T01:03:56;96862.34;;;-0.83;87.75
39363;BME280;25088;43.238;23.110;2023-03-13T01:06:25;96864.34;;;-0.85;88.06
39363;BME280;25088;43.238;23.110;2023-03-13T01:08:50;96872.56;;;-0.87;88.68
39363;BME280;25088;43.238;23.110;2023-03-13T01:11:21;96875.06;;;-0.85;88.57
39363;BME280;25088;43.238;23.110;2023-03-13T01:13:48;96874.41;;;-0.87;88.50
39363;BME280;25088;43.238;23.110;2023-03-13T01:16:19;96862.56;;;-0.93;87.70
39363;BME280;25088;43.238;23.110;2023-03-13T01:18:48;96871.41;;;-0.84;87.49
39363;BME280;25088;43.238;23.110;2023-03-13T01:21:14;96871.41;;;-0.84;86.84
39363;BME280;25088;43.238;23.110;2023-03-13T01:23:40;96843.53;;;-1.06;87.16
39363;BME280;25088;43.238;23.110;2023-03-13T01:26:07;96880.78;;;-0.88;86.92
39363;BME280;25088;43.238;23.110;2023-03-13T01:28:33;96872.06;;;-0.90;87.03
39363;BME280;25088;43.238;23.110;2023-03-13T01:30:59;96852.88;;;-1.02;86.57
39363;BME280;25088;43.238;23.110;2023-03-13T01:33:25;96877.09;;;-0.87;86.82
39363;BME280;25088;43.238;23.110;2023-03-13T01:35:51;96874.91;;;-0.84;86.71
39363;BME280;25088;43.238;23.110;2023-03-13T01:38:17;96856.22;;;-1.00;87.18
39363;BME280;25088;43.238;23.110;2023-03-13T01:40:47;96875.78;;;-0.91;88.07
39363;BME280;25088;43.238;23.110;2023-03-13T01:43:20;96884.19;;;-0.94;88.36
39363;BME280;25088;43.238;23.110;2023-03-13T01:51:37;96882.56;;;-1.12;91.16
39363;BME280;25088;43.238;23.110;2023-03-13T01:57:07;96877.94;;;-1.26;90.47
39363;BME280;25088;43.238;23.110;2023-03-13T01:59:45;96882.59;;;-1.20;90.24
39363;BME280;25088;43.238;23.110;2023-03-13T02:02:13;96890.81;;;-1.21;90.77
39363;BME280;25088;43.238;23.110;2023-03-13T02:04:44;96896.47;;;-1.16;90.12
39363;BME280;25088;43.238;23.110;2023-03-13T02:07:15;96892.94;;;-1.09;89.30
39363;BME280;25088;43.238;23.110;2023-03-13T02:09:43;96901.13;;;-1.02;88.94
39363;BME280;25088;43.238;23.110;2023-03-13T02:12:28;96909.47;;;-0.97;87.67
39363;BME280;25088;43.238;23.110;2023-03-13T02:14:57;96896.78;;;-1.03;87.32
39363;BME280;25088;43.238;23.110;2023-03-13T02:17:24;96907.63;;;-0.96;89.16
39363;BME280;25088;43.238;23.110;2023-03-13T02:19:51;96913.28;;;-0.91;87.46
39363;BME280;25088;43.238;23.110;2023-03-13T02:22:30;96905.97;;;-0.97;87.07
39363;BME280;25088;43.238;23.110;2023-03-13T02:27:31;96919.03;;;-0.94;86.70
39363;BME280;25088;43.238;23.110;2023-03-13T02:29:57;96931.75;;;-0.96;86.90
39363;BME280;25088;43.238;23.110;2023-03-13T02:32:22;96929.75;;;-0.94;86.93
39363;BME280;25088;43.238;23.110;2023-03-13T02:34:52;96923.50;;;-0.95;86.85
39363;BME280;25088;43.238;23.110;2023-03-13T02:37:19;96910.66;;;-0.99;86.81
39363;BME280;25088;43.238;23.110;2023-03-13T02:39:47;96928.53;;;-0.92;86.84
39363;BME280;25088;43.238;23.110;2023-03-13T02:42:17;96910.50;;;-1.06;86.49
39363;BME280;25088;43.238;23.110;2023-03-13T02:44:45;96934.41;;;-0.96;86.83
39363;BME280;25088;43.238;23.110;2023-03-13T02:47:15;96944.97;;;-0.95;87.44
39363;BME280;25088;43.238;23.110;2023-03-13T02:49:41;96943.16;;;-1.02;87.87
39363;BME280;25088;43.238;23.110;2023-03-13T02:52:20;96905.72;;;-1.19;88.17
39363;BME280;25088;43.238;23.110;2023-03-13T02:54:52;96938.63;;;-1.02;86.84
39363;BME280;25088;43.238;23.110;2023-03-13T02:57:20;96933.78;;;-0.98;86.89
39363;BME280;25088;43.238;23.110;2023-03-13T02:59:45;96930.41;;;-1.00;87.14
39363;BME280;25088;43.238;23.110;2023-03-13T03:02:11;96930.09;;;-1.06;87.68
39363;BME280;25088;43.238;23.110;2023-03-13T03:04:36;96914.09;;;-1.22;87.20
39363;BME280;25088;43.238;23.110;2023-03-13T03:07:02;96913.91;;;-1.20;86.86
39363;BME280;25088;43.238;23.110;2023-03-13T03:09:28;96938.13;;;-1.06;86.97
39363;BME280;25088;43.238;23.110;2023-03-13T03:11:53;96956.56;;;-1.02;87.08
39363;BME280;25088;43.238;23.110;2023-03-13T03:14:19;96952.53;;;-1.07;87.03
39363;BME280;25088;43.238;23.110;2023-03-13T03:16:44;96968.94;;;-1.10;87.63
39363;BME280;25088;43.238;23.110;2023-03-13T03:19:10;96977.84;;;-1.09;88.10
39363;BME280;25088;43.238;23.110;2023-03-13T03:21:35;96974.69;;;-1.13;88.11
39363;BME280;25088;43.238;23.110;2023-03-13T03:24:01;96990.75;;;-1.21;88.74
39363;BME280;25088;43.238;23.110;2023-03-13T03:26:27;96993.78;;;-1.24;90.44
39363;BME280;25088;43.238;23.110;2023-03-13T03:28:53;96994.13;;;-1.19;88.04
39363;BME280;25088;43.238;23.110;2023-03-13T03:31:18;96996.44;;;-1.08;87.01
39363;BME280;25088;43.238;23.110;2023-03-13T03:33:44;97006.47;;;-1.01;86.81
39363;BME280;25088;43.238;23.110;2023-03-13T03:36:13;97027.19;;;-0.95;85.96
39363;BME280;25088;43.238;23.110;2023-03-13T03:38:39;97037.28;;;-0.97;86.16
39363;BME280;25088;43.238;23.110;2023-03-13T03:41:06;97016.34;;;-1.02;85.23
39363;BME280;25088;43.238;23.110;2023-03-13T03:43:32;97020.50;;;-0.91;84.38
39363;BME280;25088;43.238;23.110;2023-03-13T03:45:58;97040.25;;;-0.84;83.84
39363;BME280;25088;43.238;23.110;2023-03-13T03:48:24;97035.94;;;-0.93;84.86
39363;BME280;25088;43.238;23.110;2023-03-13T03:50:49;97050.50;;;-0.96;85.66
39363;BME280;25088;43.238;23.110;2023-03-13T03:53:15;97022.56;;;-1.18;85.72
39363;BME280;25088;43.238;23.110;2023-03-13T03:55:40;97054.88;;;-1.03;86.09
39363;BME280;25088;43.238;23.110;2023-03-13T03:58:06;97033.47;;;-1.27;86.22
39363;BME280;25088;43.238;23.110;2023-03-13T04:00:31;97071.47;;;-1.08;86.09
39363;BME280;25088;43.238;23.110;2023-03-13T04:02:57;97070.94;;;-1.11;86.46
39363;BME280;25088;43.238;23.110;2023-03-13T04:05:23;97071.28;;;-1.06;87.00
39363;BME280;25088;43.238;23.110;2023-03-13T04:07:49;97070.78;;;-1.10;87.29
39363;BME280;25088;43.238;23.110;2023-03-13T04:10:15;97071.97;;;-1.20;88.54
39363;BME280;25088;43.238;23.110;2023-03-13T04:12:40;97086.88;;;-1.26;88.83
39363;BME280;25088;43.238;23.110;2023-03-13T04:15:06;97086.88;;;-1.26;89.30
39363;BME280;25088;43.238;23.110;2023-03-13T04:17:36;97099.44;;;-1.26;89.45
39363;BME280;25088;43.238;23.110;2023-03-13T04:20:02;97100.44;;;-1.27;88.92
39363;BME280;25088;43.238;23.110;2023-03-13T04:22:29;97110.47;;;-1.21;87.67
39363;BME280;25088;43.238;23.110;2023-03-13T04:24:55;97107.81;;;-1.13;86.98
39363;BME280;25088;43.238;23.110;2023-03-13T04:27:21;97082.69;;;-1.28;87.10
39363;BME280;25088;43.238;23.110;2023-03-13T04:29:46;97112.16;;;-1.12;86.88
39363;BME280;25088;43.238;23.110;2023-03-13T04:32:12;97111.31;;;-1.13;86.94
39363;BME280;25088;43.238;23.110;2023-03-13T04:34:37;97102.78;;;-1.16;87.68
39363;BME280;25088;43.238;23.110;2023-03-13T04:37:03;97079.50;;;-1.32;88.04
39363;BME280;25088;43.238;23.110;2023-03-13T04:39:28;97100.75;;;-1.31;88.02
39363;BME280;25088;43.238;23.110;2023-03-13T04:41:54;97088.53;;;-1.25;87.70
39363;BME280;25088;43.238;23.110;2023-03-13T04:44:21;97102.78;;;-1.16;87.51
39363;BME280;25088;43.238;23.110;2023-03-13T04:46:47;97098.75;;;-1.12;87.59
39363;BME280;25088;43.238;23.110;2023-03-13T04:49:13;97089.56;;;-1.18;86.21
39363;BME280;25088;43.238;23.110;2023-03-13T04:51:40;97087.03;;;-1.11;85.95
39363;BME280;25088;43.238;23.110;2023-03-13T04:54:06;97089.72;;;-1.03;85.29
39363;BME280;25088;43.238;23.110;2023-03-13T04:56:31;97087.03;;;-1.03;84.83
39363;BME280;25088;43.238;23.110;2023-03-13T04:58:57;97097.25;;;-0.98;85.03
39363;BME280;25088;43.238;23.110;2023-03-13T05:01:22;97110.97;;;-0.93;85.99
39363;BME280;25088;43.238;23.110;2023-03-13T05:03:48;97110.63;;;-0.98;87.17
39363;BME280;25088;43.238;23.110;2023-03-13T05:06:13;97120.34;;;-0.97;86.02
39363;BME280;25088;43.238;23.110;2023-03-13T05:08:39;97122.38;;;-0.99;85.72
39363;BME280;25088;43.238;23.110;2023-03-13T05:11:04;97113.31;;;-0.98;85.10
39363;BME280;25088;43.238;23.110;2023-03-13T05:13:30;97132.72;;;-0.80;84.87
39363;BME280;25088;43.238;23.110;2023-03-13T05:15:56;97145.59;;;-0.67;85.50
39363;BME280;25088;43.238;23.110;2023-03-13T05:18:22;97141.84;;;-0.34;83.39
39363;BME280;25088;43.238;23.110;2023-03-13T05:20:47;97143.31;;;-0.15;81.30
39363;BME280;25088;43.238;23.110;2023-03-13T05:23:13;97144.69;;;0.12;78.85
39363;BME280;25088;43.238;23.110;2023-03-13T05:25:39;97151.09;;;0.34;76.69
39363;BME280;25088;43.238;23.110;2023-03-13T05:28:05;97150.31;;;0.57;75.51
39363;BME280;25088;43.238;23.110;2023-03-13T05:30:30;97076.88;;;0.41;73.32
39363;BME280;25088;43.238;23.110;2023-03-13T05:32:56;97138.38;;;1.05;72.69
39363;BME280;25088;43.238;23.110;2023-03-13T05:35:21;97121.25;;;1.21;70.98
39363;BME280;25088;43.238;23.110;2023-03-13T05:37:47;97105.31;;;1.49;69.59
39363;BME280;25088;43.238;23.110;2023-03-13T05:40:13;97108.84;;;1.79;69.27
39363;BME280;25088;43.238;23.110;2023-03-13T05:42:38;97093.91;;;1.91;67.17
39363;BME280;25088;43.238;23.110;2023-03-13T05:45:05;97120.78;;;2.36;64.96
39363;BME280;25088;43.238;23.110;2023-03-13T05:47:30;97110.88;;;2.79;65.06
39363;BME280;25088;43.238;23.110;2023-03-13T05:49:56;97102.91;;;3.14;64.09
39363;BME280;25088;43.238;23.110;2023-03-13T05:52:21;97111.81;;;3.42;62.16
39363;BME280;25088;43.238;23.110;2023-03-13T05:54:47;97090.53;;;3.54;59.72
39363;BME280;25088;43.238;23.110;2023-03-13T05:57:13;97095.16;;;4.01;58.39
39363;BME280;25088;43.238;23.110;2023-03-13T05:59:38;97108.59;;;4.36;56.96
39363;BME280;25088;43.238;23.110;2023-03-13T06:02:04;97108.72;;;4.62;56.17
39363;BME280;25088;43.238;23.110;2023-03-13T06:04:29;97107.72;;;4.90;56.25
39363;BME280;25088;43.238;23.110;2023-03-13T06:06:54;97103.75;;;4.79;55.96
39363;BME280;25088;43.238;23.110;2023-03-13T06:09:20;97095.25;;;5.09;54.61
39363;BME280;25088;43.238;23.110;2023-03-13T06:11:46;97082.78;;;5.28;53.93
39363;BME280;25088;43.238;23.110;2023-03-13T06:14:11;97099.41;;;5.58;52.71
39363;BME280;25088;43.238;23.110;2023-03-13T06:16:36;97098.28;;;6.05;50.66
39363;BME280;25088;43.238;23.110;2023-03-13T06:19:02;97089.25;;;6.25;50.03
39363;BME280;25088;43.238;23.110;2023-03-13T06:21:28;97088.22;;;6.26;49.57
39363;BME280;25088;43.238;23.110;2023-03-13T06:23:54;97085.88;;;6.74;48.89
39363;BME280;25088;43.238;23.110;2023-03-13T06:26:20;97083.28;;;6.92;48.60
39363;BME280;25088;43.238;23.110;2023-03-13T06:28:46;97082.69;;;7.65;47.49
39363;BME280;25088;43.238;23.110;2023-03-13T06:31:13;97061.28;;;8.12;45.38
39363;BME280;25088;43.238;23.110;2023-03-13T06:33:38;97065.38;;;8.70;45.00
39363;BME280;25088;43.238;23.110;2023-03-13T06:36:04;97068.78;;;9.37;43.78
39363;BME280;25088;43.238;23.110;2023-03-13T06:38:30;97072.84;;;9.81;41.77
39363;BME280;25088;43.238;23.110;2023-03-13T06:40:55;97068.31;;;10.10;41.33
39363;BME280;25088;43.238;23.110;2023-03-13T06:43:21;97066.00;;;10.54;41.22
39363;BME280;25088;43.238;23.110;2023-03-13T06:45:47;97052.28;;;10.95;39.27
39363;BME280;25088;43.238;23.110;2023-03-13T06:48:13;97039.56;;;11.00;38.30
39363;BME280;25088;43.238;23.110;2023-03-13T06:50:39;97042.03;;;11.02;37.85
39363;BME280;25088;43.238;23.110;2023-03-13T06:53:05;97039.16;;;11.25;37.60
39363;BME280;25088;43.238;23.110;2023-03-13T06:55:30;97034.69;;;11.70;36.79
39363;BME280;25088;43.238;23.110;2023-03-13T06:57:56;97041.25;;;12.07;36.41
39363;BME280;25088;43.238;23.110;2023-03-13T07:00:22;97033.84;;;12.25;35.92
39363;BME280;25088;43.238;23.110;2023-03-13T07:02:47;97035.16;;;12.22;36.07
39363;BME280;25088;43.238;23.110;2023-03-13T07:05:13;97031.16;;;12.30;35.88
39363;BME280;25088;43.238;23.110;2023-03-13T07:07:40;96993.94;;;12.29;35.07
39363;BME280;25088;43.238;23.110;2023-03-13T07:10:06;97028.66;;;12.72;35.41
39363;BME280;25088;43.238;23.110;2023-03-13T07:12:34;97021.91;;;12.80;34.98
39363;BME280;25088;43.238;23.110;2023-03-13T07:14:59;97020.75;;;12.76;34.97
39363;BME280;25088;43.238;23.110;2023-03-13T07:17:25;97011.69;;;13.02;34.10
39363;BME280;25088;43.238;23.110;2023-03-13T07:19:50;97022.56;;;13.19;34.10
39363;BME280;25088;43.238;23.110;2023-03-13T07:22:16;97007.97;;;13.40;33.95
39363;BME280;25088;43.238;23.110;2023-03-13T07:24:41;97014.66;;;13.55;33.67
39363;BME280;25088;43.238;23.110;2023-03-13T07:27:06;97027.03;;;13.62;34.65
39363;BME280;25088;43.238;23.110;2023-03-13T07:29:32;97023.50;;;13.30;33.73
39363;BME280;25088;43.238;23.110;2023-03-13T07:31:57;97010.50;;;13.52;34.01
39363;BME280;25088;43.238;23.110;2023-03-13T07:34:23;97038.78;;;13.53;33.20
39363;BME280;25088;43.238;23.110;2023-03-13T07:36:48;97038.50;;;13.49;33.53
39363;BME280;25088;43.238;23.110;2023-03-13T07:39:14;97032.75;;;13.88;32.98
39363;BME280;25088;43.238;23.110;2023-03-13T07:41:39;97040.56;;;14.11;32.73
39363;BME280;25088;43.238;23.110;2023-03-13T07:44:05;97027.81;;;14.42;32.26
39363;BME280;25088;43.238;23.110;2023-03-13T07:46:30;97012.00;;;14.65;31.70
39363;BME280;25088;43.238;23.110;2023-03-13T07:48:56;97017.25;;;14.82;31.53
39363;BME280;25088;43.238;23.110;2023-03-13T07:51:23;97011.88;;;15.43;30.55
39363;BME280;25088;43.238;23.110;2023-03-13T07:53:50;97008.00;;;15.90;30.58
39363;BME280;25088;43.238;23.110;2023-03-13T07:56:18;97007.47;;;15.37;30.68
39363;BME280;25088;43.238;23.110;2023-03-13T07:58:44;97024.78;;;15.42;31.46
39363;BME280;25088;43.238;23.110;2023-03-13T08:01:20;97025.84;;;15.11;31.34
39363;BME280;25088;43.238;23.110;2023-03-13T08:03:46;97024.44;;;14.88;30.74
39363;BME280;25088;43.238;23.110;2023-03-13T08:06:17;97025.84;;;15.21;32.84
39363;BME280;25088;43.238;23.110;2023-03-13T08:08:43;97030.78;;;14.93;31.18
39363;BME280;25088;43.238;23.110;2023-03-13T08:11:11;97020.66;;;15.55;30.63
39363;BME280;25088;43.238;23.110;2023-03-13T08:13:38;97019.81;;;15.60;30.29
39363;BME280;25088;43.238;23.110;2023-03-13T08:18:33;97005.53;;;15.83;30.38
39363;BME280;25088;43.238;23.110;2023-03-13T08:21:04;97022.84;;;15.99;30.60
39363;BME280;25088;43.238;23.110;2023-03-13T08:23:30;97028.88;;;16.06;29.73
39363;BME280;25088;43.238;23.110;2023-03-13T08:26:07;97034.63;;;16.25;29.86
39363;BME280;25088;43.238;23.110;2023-03-13T08:28:34;97031.88;;;16.25;29.77
39363;BME280;25088;43.238;23.110;2023-03-13T08:31:24;97024.78;;;15.98;30.20
39363;BME280;25088;43.238;23.110;2023-03-13T08:33:50;97033.31;;;16.07;30.22
39363;BME280;25088;43.238;23.110;2023-03-13T08:36:27;97038.84;;;15.87;30.66
39363;BME280;25088;43.238;23.110;2023-03-13T08:38:56;97015.16;;;15.81;29.67
39363;BME280;25088;43.238;23.110;2023-03-13T08:41:24;97032.22;;;15.93;30.21
39363;BME280;25088;43.238;23.110;2023-03-13T08:43:53;97020.75;;;16.55;30.29
39363;BME280;25088;43.238;23.110;2023-03-13T08:46:19;97021.31;;;16.52;29.20
39363;BME280;25088;43.238;23.110;2023-03-13T08:48:51;97018.72;;;16.87;29.33
39363;BME280;25088;43.238;23.110;2023-03-13T08:51:18;97018.06;;;17.00;28.73
39363;BME280;25088;43.238;23.110;2023-03-13T08:53:43;97008.19;;;17.33;28.40
39363;BME280;25088;43.238;23.110;2023-03-13T08:56:11;97001.41;;;17.15;27.96
39363;BME280;25088;43.238;23.110;2023-03-13T08:58:37;96998.31;;;17.27;28.44
39363;BME280;25088;43.238;23.110;2023-03-13T09:01:11;97005.88;;;17.50;28.24
39363;BME280;25088;43.238;23.110;2023-03-13T09:03:37;96998.16;;;17.08;28.78
39363;BME280;25088;43.238;23.110;2023-03-13T09:06:04;97015.13;;;17.65;27.66
39363;BME280;25088;43.238;23.110;2023-03-13T09:08:30;97015.50;;;17.53;28.16
39363;BME280;25088;43.238;23.110;2023-03-13T09:10:57;97024.25;;;17.60;28.33
39363;BME280;25088;43.238;23.110;2023-03-13T09:13:24;97023.31;;;18.09;26.70
39363;BME280;25088;43.238;23.110;2023-03-13T09:16:03;97031.63;;;18.33;27.35
39363;BME280;25088;43.238;23.110;2023-03-13T09:18:30;97035.38;;;18.18;27.51
39363;BME280;25088;43.238;23.110;2023-03-13T09:20:56;97022.66;;;18.70;27.68
39363;BME280;25088;43.238;23.110;2023-03-13T09:23:22;97029.66;;;18.33;26.79
39363;BME280;25088;43.238;23.110;2023-03-13T09:25:51;97021.09;;;18.59;27.02
39363;BME280;25088;43.238;23.110;2023-03-13T09:28:17;97022.16;;;18.87;26.28
39363;BME280;25088;43.238;23.110;2023-03-13T09:30:42;97022.34;;;18.72;27.20
39363;BME280;25088;43.238;23.110;2023-03-13T09:33:08;97016.19;;;17.74;27.85
39363;BME280;25088;43.238;23.110;2023-03-13T09:35:33;97015.03;;;18.57;26.88
39363;BME280;25088;43.238;23.110;2023-03-13T09:37:59;96995.84;;;19.08;26.30
39363;BME280;25088;43.238;23.110;2023-03-13T09:40:25;97004.38;;;18.69;26.89
39363;BME280;25088;43.238;23.110;2023-03-13T09:42:58;97001.09;;;18.43;27.05
39363;BME280;25088;43.238;23.110;2023-03-13T09:45:44;96997.84;;;18.84;26.97
39363;BME280;25088;43.238;23.110;2023-03-13T09:48:38;96985.59;;;19.28;25.83
39363;BME280;25088;43.238;23.110;2023-03-13T09:51:22;96983.84;;;19.51;25.73
39363;BME280;25088;43.238;23.110;2023-03-13T09:54:08;96975.31;;;19.66;26.10
39363;BME280;25088;43.238;23.110;2023-03-13T09:56:45;96979.34;;;19.87;25.17
39363;BME280;25088;43.238;23.110;2023-03-13T09:59:36;96966.34;;;20.02;25.60
39363;BME280;25088;43.238;23.110;2023-03-13T10:04:50;96968.78;;;19.57;25.34
39363;BME280;25088;43.238;23.110;2023-03-13T10:07:17;96957.56;;;19.16;26.98
39363;BME280;25088;43.238;23.110;2023-03-13T10:09:45;96950.56;;;19.18;26.80
39363;BME280;25088;43.238;23.110;2023-03-13T10:17:36;96940.63;;;18.60;27.03
39363;BME280;25088;43.238;23.110;2023-03-13T10:20:24;96926.06;;;19.44;26.35
39363;BME280;25088;43.238;23.110;2023-03-13T10:22:58;96914.41;;;20.21;25.72
39363;BME280;25088;43.238;23.110;2023-03-13T10:25:31;96913.19;;;20.00;25.48
39363;BME280;25088;43.238;23.110;2023-03-13T10:27:56;96884.06;;;19.56;26.70
39363;BME280;25088;43.238;23.110;2023-03-13T10:32:53;96913.09;;;19.26;26.43
39363;BME280;25088;43.238;23.110;2023-03-13T10:35:23;96895.31;;;18.94;26.57
39363;BME280;25088;43.238;23.110;2023-03-13T10:37:49;96883.72;;;19.11;26.83
39363;BME280;25088;43.238;23.110;2023-03-13T10:40:26;96895.97;;;19.56;26.19
39363;BME280;25088;43.238;23.110;2023-03-13T10:42:58;96891.81;;;19.73;25.80
39363;BME280;25088;43.238;23.110;2023-03-13T10:45:25;96881.75;;;19.44;26.39
39363;BME280;25088;43.238;23.110;2023-03-13T10:47:56;96870.13;;;19.28;25.93
39363;BME280;25088;43.238;23.110;2023-03-13T10:50:25;96879.59;;;19.87;26.05
39363;BME280;25088;43.238;23.110;2023-03-13T10:52:52;96875.91;;;20.20;25.76
39363;BME280;25088;43.238;23.110;2023-03-13T10:55:21;96864.56;;;20.71;24.85
39363;BME280;25088;43.238;23.110;2023-03-13T10:58:00;96865.16;;;20.68;25.29
39363;BME280;25088;43.238;23.110;2023-03-13T11:00:28;96866.84;;;20.55;25.17
39363;BME280;25088;43.238;23.110;2023-03-13T11:02:54;96851.69;;;21.34;25.50
39363;BME280;25088;43.238;23.110;2023-03-13T11:05:32;96859.22;;;21.20;24.86
39363;BME280;25088;43.238;23.110;2023-03-13T11:08:11;96824.31;;;20.60;24.49
39363;BME280;25088;43.238;23.110;2023-03-13T11:10:50;96817.19;;;20.18;25.80
39363;BME280;25088;43.238;23.110;2023-03-13T11:16:05;96843.06;;;20.13;25.98
39363;BME280;25088;43.238;23.110;2023-03-13T11:21:39;96838.50;;;21.48;25.06
39363;BME280;25088;43.238;23.110;2023-03-13T11:27:47;96822.72;;;22.06;23.70
39363;BME280;25088;43.238;23.110;2023-03-13T11:30:14;96820.94;;;21.61;24.95
39363;BME280;25088;43.238;23.110;2023-03-13T11:33:04;96820.69;;;22.20;23.78
39363;BME280;25088;43.238;23.110;2023-03-13T11:38:07;96812.09;;;22.91;23.25
39363;BME280;25088;43.238;23.110;2023-03-13T11:40:41;96818.13;;;22.01;23.77
39363;BME280;25088;43.238;23.110;2023-03-13T11:43:28;96819.09;;;21.97;23.95
39363;BME280;25088;43.238;23.110;2023-03-13T11:46:27;96821.81;;;22.28;23.73
39363;BME280;25088;43.238;23.110;2023-03-13T11:49:07;96817.28;;;22.66;23.04
39363;BME280;25088;43.238;23.110;2023-03-13T11:51:58;96807.00;;;22.76;23.33
39363;BME280;25088;43.238;23.110;2023-03-13T11:57:07;96802.06;;;21.81;23.77
39363;BME280;25088;43.238;23.110;2023-03-13T12:02:46;96805.88;;;21.93;23.21
39363;BME280;25088;43.238;23.110;2023-03-13T12:05:17;96796.63;;;22.15;23.25
39363;BME280;25088;43.238;23.110;2023-03-13T12:10:19;96805.56;;;21.33;24.41
39363;BME280;25088;43.238;23.110;2023-03-13T12:13:07;96801.75;;;21.91;23.73
39363;BME280;25088;43.238;23.110;2023-03-13T12:15:58;96787.91;;;21.60;24.59
39363;BME280;25088;43.238;23.110;2023-03-13T12:18:41;96797.50;;;21.23;24.42
39363;BME280;25088;43.238;23.110;2023-03-13T12:21:20;96798.69;;;21.08;24.42
39363;BME280;25088;43.238;23.110;2023-03-13T12:23:56;96796.34;;;21.46;25.02
39363;BME280;25088;43.238;23.110;2023-03-13T12:29:15;96779.69;;;21.46;24.96
39363;BME280;25088;43.238;23.110;2023-03-13T12:32:07;96787.41;;;21.58;23.80
39363;BME280;25088;43.238;23.110;2023-03-13T12:34:51;96788.53;;;21.26;24.15
39363;BME280;25088;43.238;23.110;2023-03-13T12:42:41;96774.41;;;22.50;23.68
39363;BME280;25088;43.238;23.110;2023-03-13T12:45:21;96758.38;;;22.47;23.97
39363;BME280;25088;43.238;23.110;2023-03-13T12:48:16;96780.16;;;21.88;23.69
39363;BME280;25088;43.238;23.110;2023-03-13T12:54:25;96757.38;;;22.26;23.88
39363;BME280;25088;43.238;23.110;2023-03-13T12:59:46;96766.38;;;22.92;23.12
39363;BME280;25088;43.238;23.110;2023-03-13T13:02:25;96747.84;;;22.09;23.99
39363;BME280;25088;43.238;23.110;2023-03-13T13:04:52;96773.50;;;22.06;23.77
39363;BME280;25088;43.238;23.110;2023-03-13T13:07:36;96760.81;;;22.40;23.19
39363;BME280;25088;43.238;23.110;2023-03-13T13:12:35;96745.78;;;22.41;23.37
39363;BME280;25088;43.238;23.110;2023-03-13T13:15:24;96755.44;;;22.78;23.45
39363;BME280;25088;43.238;23.110;2023-03-13T13:18:12;96744.47;;;22.56;24.20
39363;BME280;25088;43.238;23.110;2023-03-13T13:20:45;96753.31;;;22.58;23.75
39363;BME280;25088;43.238;23.110;2023-03-13T13:23:33;96754.91;;;22.85;23.57
39363;BME280;25088;43.238;23.110;2023-03-13T13:28:50;96732.81;;;22.28;23.19
39363;BME280;25088;43.238;23.110;2023-03-13T13:39:43;96744.34;;;21.86;24.62
39363;BME280;25088;43.238;23.110;2023-03-13T13:47:44;96750.88;;;21.82;23.95
39363;BME280;25088;43.238;23.110;2023-03-13T13:50:20;96744.72;;;21.14;24.64
39363;BME280;25088;43.238;23.110;2023-03-13T13:52:46;96757.94;;;21.39;25.10
39363;BME280;25088;43.238;23.110;2023-03-13T13:57:57;96747.59;;;20.55;24.79
39363;BME280;25088;43.238;23.110;2023-03-13T14:00:36;96741.41;;;20.81;25.13
39363;BME280;25088;43.238;23.110;2023-03-13T14:03:16;96752.59;;;20.98;24.81
39363;BME280;25088;43.238;23.110;2023-03-13T14:05:42;96752.13;;;20.74;25.66
39363;BME280;25088;43.238;23.110;2023-03-13T14:10:45;96752.25;;;19.96;25.18
39363;BME280;25088;43.238;23.110;2023-03-13T14:13:18;96747.75;;;20.23;25.44
39363;BME280;25088;43.238;23.110;2023-03-13T14:15:49;96759.41;;;20.11;25.32
39363;BME280;25088;43.238;23.110;2023-03-13T14:18:21;96746.28;;;20.39;24.68
39363;BME280;25088;43.238;23.110;2023-03-13T14:21:00;96755.31;;;20.45;25.51
39363;BME280;25088;43.238;23.110;2023-03-13T14:23:37;96745.50;;;20.25;25.00